Time;durP1;ratioP1;P1;durP2;ratioP2;P2;SDS_P1;SDS_P2;PMS_P1;PMS_P2;Temp;Humidity;BMP_temperature;BMP_pressure;BME280_temperature;BME280_humidity;BME280_pressure;Samples;Min_cycle;Max_cycle;Signal;HPM_P1;HPM_P2
2023/08/04 00:00:34;;;;;;;3.30;3.00;;;20.40;99.00;;;;;;5031062;28;20459;-71
2023/08/04 00:03:05;;;;;;;3.57;3.10;;;20.40;99.00;;;;;;5040463;28;20281;-72
2023/08/04 00:05:31;;;;;;;3.10;2.50;;;20.40;99.00;;;;;;5027693;28;20432;-72
2023/08/04 00:07:59;;;;;;;3.00;2.73;;;20.40;99.00;;;;;;4994603;28;20404;-71
2023/08/04 00:10:27;;;;;;;2.90;2.67;;;20.40;99.00;;;;;;5028360;28;20515;-72
2023/08/04 00:12:56;;;;;;;3.00;2.70;;;20.40;99.00;;;;;;4995331;28;20421;-72
2023/08/04 00:15:21;;;;;;;3.00;2.63;;;20.40;98.90;;;;;;5011241;28;20507;-69
2023/08/04 00:17:50;;;;;;;5.93;2.97;;;20.40;98.90;;;;;;4994946;28;20531;-72
2023/08/04 00:20:21;;;;;;;4.50;3.23;;;20.40;99.00;;;;;;4994845;28;20445;-72
2023/08/04 00:22:49;;;;;;;5.03;3.07;;;20.40;98.90;;;;;;5028869;28;20407;-71
2023/08/04 00:25:17;;;;;;;3.30;3.00;;;20.40;98.90;;;;;;4994773;28;20467;-71
2023/08/04 00:27:45;;;;;;;4.67;2.90;;;20.40;99.00;;;;;;5029335;28;20215;-71
2023/08/04 00:30:15;;;;;;;3.30;2.90;;;20.40;99.00;;;;;;4998392;28;21061;-72
2023/08/04 00:32:43;;;;;;;3.70;3.23;;;20.40;99.00;;;;;;5030487;28;20491;-71
2023/08/04 00:35:08;;;;;;;3.50;3.07;;;20.40;98.90;;;;;;5023883;28;20967;-71
2023/08/04 00:37:37;;;;;;;4.60;3.20;;;20.40;99.00;;;;;;5000185;28;20441;-71
2023/08/04 00:40:08;;;;;;;3.37;3.07;;;20.40;98.90;;;;;;5011235;28;20458;-71
2023/08/04 00:42:36;;;;;;;3.17;2.80;;;20.40;98.90;;;;;;4995003;28;20428;-72
2023/08/04 00:45:08;;;;;;;4.57;3.10;;;20.30;98.90;;;;;;5022135;28;20478;-71
2023/08/04 00:47:38;;;;;;;3.50;3.20;;;20.40;98.90;;;;;;5030389;28;20427;-71
2023/08/04 00:50:07;;;;;;;3.40;3.00;;;20.30;98.90;;;;;;5014474;28;20539;-71
2023/08/04 00:52:33;;;;;;;3.20;2.83;;;20.40;98.90;;;;;;5014495;28;20442;-71
2023/08/04 00:54:59;;;;;;;3.03;2.73;;;20.30;98.90;;;;;;5014371;28;20440;-72
2023/08/04 00:57:29;;;;;;;3.30;2.50;;;20.30;98.80;;;;;;5008798;28;20476;-70
2023/08/04 00:59:58;;;;;;;3.00;2.70;;;20.30;98.90;;;;;;5025478;28;20457;-70
2023/08/04 01:02:24;;;;;;;4.33;2.90;;;20.30;98.80;;;;;;4994758;28;20423;-71
2023/08/04 01:04:50;;;;;;;2.90;2.70;;;20.30;98.80;;;;;;4978900;28;20471;-71
2023/08/04 01:07:23;;;;;;;2.80;2.60;;;20.30;98.90;;;;;;5010927;28;20438;-69
2023/08/04 01:10:05;;;;;;;4.97;3.30;;;20.30;98.90;;;;;;5010818;28;20450;-72
2023/08/04 01:12:54;;;;;;;3.80;3.27;;;20.30;98.80;;;;;;5010769;28;20400;-72
2023/08/04 01:15:26;;;;;;;3.17;2.97;;;20.30;98.80;;;;;;5023514;28;20568;-70
2023/08/04 01:17:55;;;;;;;4.93;3.17;;;20.30;98.80;;;;;;5028812;28;20981;-71
2023/08/04 01:20:22;;;;;;;3.10;2.83;;;20.30;98.90;;;;;;5019511;28;20448;-71
2023/08/04 01:22:53;;;;;;;3.00;2.70;;;20.30;98.90;;;;;;5013005;28;20530;-72
2023/08/04 01:25:25;;;;;;;5.40;3.40;;;20.30;98.80;;;;;;5016598;28;20482;-71
2023/08/04 01:27:58;;;;;;;3.43;3.13;;;20.30;98.80;;;;;;5034357;28;20425;-71
2023/08/04 01:30:30;;;;;;;3.47;3.17;;;20.30;98.90;;;;;;5033945;28;20459;-72
2023/08/04 01:32:59;;;;;;;3.53;3.13;;;20.30;98.80;;;;;;5004783;28;21017;-71
2023/08/04 01:35:26;;;;;;;4.37;2.87;;;20.20;98.80;;;;;;4999633;28;20470;-70
2023/08/04 01:37:54;;;;;;;4.57;3.00;;;20.20;98.80;;;;;;5014043;28;20409;-71
2023/08/04 01:40:27;;;;;;;3.10;2.80;;;20.30;98.80;;;;;;4997789;28;20441;-70
2023/08/04 01:42:53;;;;;;;3.50;3.20;;;20.20;98.80;;;;;;5014048;28;20466;-71
2023/08/04 01:45:22;;;;;;;4.13;3.23;;;20.20;98.80;;;;;;5048380;28;20938;-72
2023/08/04 01:47:53;;;;;;;3.03;2.80;;;20.20;98.80;;;;;;5017732;28;20397;-72
2023/08/04 01:50:19;;;;;;;7.10;3.10;;;20.20;99.10;;;;;;5017297;28;20460;-72
2023/08/04 01:52:47;;;;;;;6.10;2.87;;;20.20;98.80;;;;;;5033806;28;20384;-71
2023/08/04 01:55:16;;;;;;;3.53;3.00;;;20.20;98.80;;;;;;5001985;28;20421;-71
2023/08/04 01:57:43;;;;;;;3.67;2.73;;;20.20;98.80;;;;;;5013885;28;20427;-71
2023/08/04 02:00:13;;;;;;;3.77;2.87;;;20.20;98.70;;;;;;5017179;28;20485;-71
2023/08/04 02:02:42;;;;;;;3.10;2.67;;;20.20;98.70;;;;;;5050837;28;20400;-71
2023/08/04 02:05:08;;;;;;;6.43;3.03;;;20.20;98.70;;;;;;5019247;28;20488;-72
2023/08/04 02:07:34;;;;;;;3.10;2.90;;;20.20;98.70;;;;;;5014960;28;20413;-71
2023/08/04 02:10:00;;;;;;;3.13;2.83;;;20.20;98.70;;;;;;5016993;28;20793;-71
2023/08/04 02:12:29;;;;;;;3.93;2.90;;;20.20;98.70;;;;;;5033766;28;20401;-71
2023/08/04 02:14:55;;;;;;;3.40;3.20;;;20.20;98.70;;;;;;5004549;28;20466;-72
2023/08/04 02:17:23;;;;;;;3.97;3.13;;;20.20;98.70;;;;;;4997606;28;20202;-71
2023/08/04 02:19:52;;;;;;;3.53;3.23;;;20.20;98.70;;;;;;4997251;28;20443;-71
2023/08/04 02:22:19;;;;;;;4.03;3.40;;;20.20;98.70;;;;;;5031031;28;20411;-71
2023/08/04 02:24:47;;;;;;;3.27;2.97;;;20.20;98.70;;;;;;5023709;28;20459;-72
2023/08/04 02:27:21;;;;;;;3.70;3.40;;;20.20;98.70;;;;;;5050737;28;20404;-71
2023/08/04 02:29:51;;;;;;;3.43;3.13;;;20.20;98.70;;;;;;5032974;28;20540;-71
2023/08/04 02:32:17;;;;;;;3.70;3.10;;;20.10;98.70;;;;;;5016055;28;20417;-70
2023/08/04 02:34:45;;;;;;;3.87;3.53;;;20.10;98.70;;;;;;5022805;28;21029;-71
2023/08/04 02:37:11;;;;;;;4.60;3.43;;;20.10;98.70;;;;;;5028270;28;20455;-71
2023/08/04 02:39:37;;;;;;;3.57;2.93;;;20.20;98.70;;;;;;5016584;28;20516;-71
2023/08/04 02:42:08;;;;;;;4.50;4.07;;;20.10;98.70;;;;;;5016684;28;20846;-71
2023/08/04 02:44:42;;;;;;;4.13;3.80;;;20.10;98.70;;;;;;5007908;28;20969;-71
2023/08/04 02:47:11;;;;;;;3.83;3.53;;;20.10;98.70;;;;;;5030508;28;20437;-71
2023/08/04 02:49:39;;;;;;;3.83;3.50;;;20.10;99.00;;;;;;5012458;28;20431;-70
2023/08/04 02:52:14;;;;;;;8.20;3.43;;;20.10;98.60;;;;;;5012700;28;20435;-71
2023/08/04 02:54:40;;;;;;;4.70;3.90;;;20.10;98.60;;;;;;5013043;28;20461;-71
2023/08/04 02:57:06;;;;;;;3.93;3.57;;;20.10;98.60;;;;;;5012410;28;20456;-71
2023/08/04 02:59:36;;;;;;;3.80;3.50;;;20.10;98.60;;;;;;5043963;28;20446;-71
2023/08/04 03:02:02;;;;;;;4.13;3.50;;;20.10;98.70;;;;;;5012797;28;20440;-71
2023/08/04 03:04:29;;;;;;;4.30;3.70;;;20.10;98.60;;;;;;5037408;28;20501;-71
2023/08/04 03:06:55;;;;;;;4.40;3.53;;;20.10;99.00;;;;;;5050357;28;20393;-71
2023/08/04 03:09:21;;;;;;;4.17;3.70;;;20.10;98.60;;;;;;5052909;23;20507;-69
2023/08/04 03:11:47;;;;;;;3.60;3.30;;;20.10;98.60;;;;;;4974859;28;20249;-69
2023/08/04 03:14:16;;;;;;;5.47;4.20;;;20.10;98.60;;;;;;5027986;28;20446;-69
2023/08/04 03:16:44;;;;;;;7.23;4.40;;;20.00;98.60;;;;;;5013784;28;20396;-68
2023/08/04 03:19:10;;;;;;;5.63;3.60;;;20.00;98.60;;;;;;5013277;28;20401;-69
2023/08/04 03:21:36;;;;;;;4.03;3.63;;;20.10;98.60;;;;;;5028079;28;20285;-69
2023/08/04 03:24:02;;;;;;;4.33;3.60;;;20.00;98.60;;;;;;5016781;28;20596;-68
2023/08/04 03:26:28;;;;;;;5.17;3.67;;;20.00;98.60;;;;;;5032702;28;20499;-69
2023/08/04 03:28:54;;;;;;;5.50;3.60;;;20.10;98.60;;;;;;5040463;28;20441;-69
2023/08/04 03:31:22;;;;;;;3.83;3.53;;;20.00;98.60;;;;;;5012699;28;20802;-69
2023/08/04 03:33:48;;;;;;;7.60;4.53;;;20.00;98.60;;;;;;5031025;28;20176;-69
2023/08/04 03:36:14;;;;;;;5.53;3.80;;;20.00;98.60;;;;;;5029140;28;20510;-69
2023/08/04 03:38:43;;;;;;;7.27;4.37;;;20.00;98.60;;;;;;5012364;28;20597;-68
2023/08/04 03:41:08;;;;;;;3.87;3.57;;;20.00;98.50;;;;;;5029936;28;20530;-69
2023/08/04 03:43:34;;;;;;;5.00;3.93;;;20.00;98.50;;;;;;5034856;28;20216;-68
2023/08/04 03:46:00;;;;;;;4.03;3.63;;;20.00;98.60;;;;;;5031893;28;20403;-69
2023/08/04 03:48:26;;;;;;;4.60;3.70;;;20.00;98.50;;;;;;5032020;28;20546;-69
2023/08/04 03:50:52;;;;;;;6.07;3.40;;;20.00;98.50;;;;;;5032108;28;20204;-69
2023/08/04 03:53:18;;;;;;;5.13;3.73;;;20.00;98.50;;;;;;5046085;28;20464;-68
2023/08/04 03:55:48;;;;;;;6.37;3.80;;;20.00;98.50;;;;;;5032182;28;20419;-69
2023/08/04 03:58:14;;;;;;;5.60;4.30;;;20.00;98.50;;;;;;5045434;28;20421;-69
2023/08/04 04:00:43;;;;;;;4.20;3.60;;;20.00;98.60;;;;;;4995877;28;20459;-68
2023/08/04 04:03:09;;;;;;;4.30;3.90;;;20.00;98.50;;;;;;5013649;28;20454;-69
2023/08/04 04:05:38;;;;;;;4.80;3.93;;;20.00;98.50;;;;;;5049616;28;20465;-69
2023/08/04 04:08:08;;;;;;;4.60;3.90;;;20.00;98.50;;;;;;5007847;28;20762;-69
2023/08/04 04:10:34;;;;;;;5.57;3.67;;;19.90;98.50;;;;;;5029131;28;20682;-69
2023/08/04 04:13:01;;;;;;;4.23;3.83;;;19.90;98.50;;;;;;5028594;28;20416;-69
2023/08/04 04:15:29;;;;;;;4.23;3.83;;;20.00;98.50;;;;;;5013762;28;20182;-69
2023/08/04 04:18:01;;;;;;;4.27;3.87;;;19.90;98.50;;;;;;5014542;28;20425;-68
2023/08/04 04:20:29;;;;;;;5.77;3.87;;;19.90;98.50;;;;;;5018216;28;20220;-69
2023/08/04 04:22:57;;;;;;;4.10;3.70;;;19.90;98.50;;;;;;5027273;28;20433;-70
2023/08/04 04:25:23;;;;;;;6.20;3.97;;;19.90;98.50;;;;;;5028987;28;20469;-70
2023/08/04 04:27:51;;;;;;;5.20;3.63;;;19.90;98.50;;;;;;5012331;28;20436;-70
2023/08/04 04:30:17;;;;;;;4.37;3.97;;;19.90;98.50;;;;;;4994238;28;20247;-70
2023/08/04 04:32:45;;;;;;;4.70;4.10;;;19.90;98.50;;;;;;5023424;28;20518;-69
2023/08/04 04:35:14;;;;;;;5.47;4.23;;;19.90;98.50;;;;;;5029033;28;20422;-70
2023/08/04 04:37:42;;;;;;;4.30;3.70;;;19.90;98.50;;;;;;4974690;28;20464;-69
2023/08/04 04:40:11;;;;;;;4.97;4.30;;;19.90;98.50;;;;;;5013574;28;20825;-70
2023/08/04 04:42:42;;;;;;;5.77;3.50;;;19.90;98.50;;;;;;5014250;28;20505;-70
2023/08/04 04:45:11;;;;;;;7.50;4.40;;;19.90;98.50;;;;;;5047976;28;20449;-70
2023/08/04 04:47:37;;;;;;;6.33;4.43;;;19.90;98.50;;;;;;4990934;28;20464;-70
2023/08/04 04:50:03;;;;;;;4.23;3.93;;;19.90;98.50;;;;;;5003357;28;20509;-70
2023/08/04 04:52:33;;;;;;;5.60;4.53;;;19.90;98.50;;;;;;5030345;28;20419;-70
2023/08/04 04:55:02;;;;;;;4.03;3.60;;;19.80;98.50;;;;;;5031560;28;20439;-70
2023/08/04 04:57:29;;;;;;;4.70;4.20;;;19.80;98.50;;;;;;5033893;28;20440;-70
2023/08/04 04:59:55;;;;;;;4.57;4.17;;;19.80;98.50;;;;;;5013997;28;20982;-70
2023/08/04 05:02:21;;;;;;;4.70;3.90;;;19.90;98.60;;;;;;5044864;28;20417;-70
2023/08/04 05:04:48;;;;;;;4.77;4.23;;;19.90;98.60;;;;;;5014775;28;20553;-68
2023/08/04 05:07:14;;;;;;;4.50;4.10;;;19.80;98.50;;;;;;5008554;28;20456;-70
2023/08/04 05:09:41;;;;;;;3.50;3.20;;;19.90;98.60;;;;;;5033284;28;20870;-70
2023/08/04 05:12:07;;;;;;;5.53;3.80;;;19.90;98.60;;;;;;5014813;28;20415;-70
2023/08/04 05:14:35;;;;;;;4.40;3.43;;;19.80;98.50;;;;;;5029809;28;20432;-70
2023/08/04 05:17:06;;;;;;;6.73;3.60;;;19.80;98.50;;;;;;5045641;28;20454;-70
2023/08/04 05:19:33;;;;;;;4.87;3.67;;;19.80;98.50;;;;;;5017500;28;20770;-74
2023/08/04 05:21:59;;;;;;;4.30;3.83;;;19.80;98.50;;;;;;5028438;28;20432;-70
2023/08/04 05:24:25;;;;;;;4.40;4.00;;;19.80;98.50;;;;;;5013018;28;20463;-72
2023/08/04 05:26:51;;;;;;;8.80;4.20;;;19.80;98.50;;;;;;5081563;23;21009;-74
2023/08/04 05:29:17;;;;;;;4.23;3.83;;;19.80;98.50;;;;;;5010259;28;20426;-74
2023/08/04 05:31:43;;;;;;;4.27;3.87;;;19.80;98.50;;;;;;4994892;28;20437;-75
2023/08/04 05:34:09;;;;;;;4.43;4.03;;;19.80;98.50;;;;;;4993501;28;20451;-76
2023/08/04 05:36:35;;;;;;;5.13;4.03;;;19.80;98.50;;;;;;4984953;28;20743;-74
2023/08/04 05:39:04;;;;;;;4.70;4.20;;;19.80;98.50;;;;;;5014399;28;20801;-74
2023/08/04 05:41:29;;;;;;;5.20;3.80;;;19.80;98.50;;;;;;5017581;28;20443;-71
2023/08/04 05:44:00;;;;;;;4.87;3.70;;;19.80;98.50;;;;;;5009986;28;20833;-72
2023/08/04 05:46:26;;;;;;;4.17;3.73;;;19.80;98.50;;;;;;4995673;28;20452;-72
2023/08/04 05:48:52;;;;;;;4.80;4.30;;;19.80;98.50;;;;;;5009339;28;20427;-72
2023/08/04 05:51:18;;;;;;;4.00;3.57;;;19.80;98.50;;;;;;4976025;28;20446;-72
2023/08/04 05:53:44;;;;;;;4.70;3.77;;;19.80;98.50;;;;;;4973475;28;20183;-73
2023/08/04 05:56:10;;;;;;;7.23;4.60;;;19.80;98.50;;;;;;4986677;28;20426;-73
2023/08/04 05:58:36;;;;;;;4.50;4.10;;;19.80;98.40;;;;;;4884928;28;20604;-72
2023/08/04 06:01:02;;;;;;;4.27;3.60;;;19.80;98.50;;;;;;4990095;28;20442;-73
2023/08/04 06:03:31;;;;;;;6.37;3.87;;;19.80;98.40;;;;;;4985924;28;20472;-72
2023/08/04 06:05:59;;;;;;;4.93;4.00;;;19.80;98.40;;;;;;5003764;28;21222;-72
2023/08/04 06:08:25;;;;;;;6.40;3.83;;;19.80;98.40;;;;;;4989671;28;20925;-73
2023/08/04 06:10:53;;;;;;;6.63;4.90;;;19.80;98.40;;;;;;4956591;28;20455;-73
2023/08/04 06:13:19;;;;;;;5.60;4.00;;;19.80;98.40;;;;;;4989606;28;20410;-72
2023/08/04 06:15:47;;;;;;;5.07;4.60;;;19.80;98.40;;;;;;4993028;28;20428;-72
2023/08/04 06:18:13;;;;;;;5.10;4.00;;;19.80;98.70;;;;;;4959144;28;20539;-72
2023/08/04 06:20:43;;;;;;;5.53;3.90;;;19.80;98.40;;;;;;4993136;28;20444;-71
2023/08/04 06:23:11;;;;;;;7.63;4.60;;;19.80;98.40;;;;;;4989804;28;20448;-73
2023/08/04 06:25:37;;;;;;;4.80;4.37;;;19.80;98.40;;;;;;4991085;28;20434;-73
2023/08/04 06:28:06;;;;;;;4.53;4.23;;;19.80;98.40;;;;;;5013501;28;20428;-73
2023/08/04 06:30:36;;;;;;;4.80;3.50;;;19.80;98.40;;;;;;4999027;28;20900;-73
2023/08/04 06:33:02;;;;;;;5.10;3.80;;;19.80;98.40;;;;;;4991383;28;20490;-72
2023/08/04 06:35:28;;;;;;;5.20;4.53;;;19.80;98.60;;;;;;5010718;28;20424;-73
2023/08/04 06:37:59;;;;;;;5.47;4.50;;;19.80;98.50;;;;;;5000581;28;20466;-72
2023/08/04 06:40:28;;;;;;;5.03;3.90;;;19.80;98.50;;;;;;5001765;28;20459;-73
2023/08/04 06:42:54;;;;;;;5.23;4.00;;;19.80;98.50;;;;;;5004357;28;20457;-75
2023/08/04 06:45:20;;;;;;;8.13;3.60;;;19.80;98.40;;;;;;4994965;28;20551;-75
2023/08/04 06:47:49;;;;;;;4.57;4.10;;;19.80;98.50;;;;;;5014907;28;20528;-72
2023/08/04 06:50:17;;;;;;;5.13;4.10;;;19.80;98.50;;;;;;4992684;28;20506;-76
2023/08/04 06:52:43;;;;;;;5.43;4.07;;;19.80;98.50;;;;;;5010254;28;20441;-76
2023/08/04 06:55:10;;;;;;;4.97;4.47;;;19.80;98.50;;;;;;4981906;28;20457;-77
2023/08/04 06:57:38;;;;;;;4.63;4.20;;;19.80;98.50;;;;;;4993116;28;20187;-76
2023/08/04 07:00:09;;;;;;;4.30;3.93;;;19.80;98.40;;;;;;4992301;28;20461;-76
2023/08/04 07:02:35;;;;;;;5.40;4.23;;;19.80;98.50;;;;;;4993505;28;20440;-75
2023/08/04 07:05:04;;;;;;;6.60;4.07;;;19.80;98.50;;;;;;4977118;28;21005;-77
2023/08/04 07:07:30;;;;;;;5.77;4.40;;;19.80;98.40;;;;;;4975148;28;20448;-77
2023/08/04 07:09:58;;;;;;;5.00;3.83;;;19.80;98.50;;;;;;5006951;28;20463;-74
2023/08/04 07:12:24;;;;;;;4.43;4.03;;;19.80;98.50;;;;;;4995486;28;20444;-75
2023/08/04 07:14:50;;;;;;;5.70;4.47;;;19.80;98.50;;;;;;4990928;28;20456;-77
2023/08/04 07:17:18;;;;;;;4.93;4.30;;;19.80;98.50;;;;;;4991636;28;20202;-74
2023/08/04 07:19:48;;;;;;;4.80;4.00;;;19.80;98.50;;;;;;4991974;28;20484;-74
2023/08/04 07:22:14;;;;;;;6.33;4.70;;;19.80;98.50;;;;;;4992265;28;20427;-73
2023/08/04 07:24:43;;;;;;;4.30;3.80;;;19.80;98.50;;;;;;5009865;28;20511;-74
2023/08/04 07:27:09;;;;;;;8.97;4.73;;;19.80;98.50;;;;;;4973045;28;20491;-74
2023/08/04 07:29:35;;;;;;;6.30;4.27;;;19.80;98.50;;;;;;4971545;28;20506;-74
2023/08/04 07:32:01;;;;;;;4.40;3.90;;;19.80;98.50;;;;;;4994424;28;20440;-73
2023/08/04 07:34:27;;;;;;;5.57;4.00;;;19.80;98.50;;;;;;4981221;28;21044;-73
2023/08/04 07:36:53;;;;;;;7.40;4.00;;;19.80;98.50;;;;;;4981795;28;20484;-74
2023/08/04 07:39:19;;;;;;;5.23;4.57;;;19.80;98.80;;;;;;4973930;28;21074;-73
2023/08/04 07:41:50;;;;;;;5.97;4.50;;;19.80;98.60;;;;;;5025054;28;20405;-73
2023/08/04 07:44:16;;;;;;;4.80;3.97;;;19.80;98.50;;;;;;4992188;28;20455;-73
2023/08/04 07:46:42;;;;;;;7.37;4.97;;;19.80;98.60;;;;;;4992110;28;20500;-73
2023/08/04 07:49:11;;;;;;;4.70;3.93;;;19.80;98.50;;;;;;4976464;28;20457;-73
2023/08/04 07:51:37;;;;;;;7.40;4.10;;;19.80;98.50;;;;;;4990005;28;20450;-73
2023/08/04 07:54:03;;;;;;;7.50;4.60;;;19.80;98.60;;;;;;4957336;28;20800;-74
2023/08/04 07:56:32;;;;;;;4.53;3.93;;;19.80;98.60;;;;;;4990735;28;20448;-74
2023/08/04 07:59:01;;;;;;;5.10;3.90;;;19.80;98.60;;;;;;4982959;28;20525;-74
2023/08/04 08:01:29;;;;;;;4.17;3.77;;;19.80;98.60;;;;;;4972858;28;20610;-74
2023/08/04 08:03:55;;;;;;;4.87;4.40;;;19.80;98.60;;;;;;4975028;28;20992;-74
2023/08/04 08:06:21;;;;;;;6.77;4.63;;;19.80;98.60;;;;;;4991437;28;20428;-74
2023/08/04 08:08:50;;;;;;;4.83;4.10;;;19.80;98.60;;;;;;5006362;28;20545;-75
2023/08/04 08:11:16;;;;;;;5.20;4.70;;;19.80;98.60;;;;;;4991754;28;20499;-74
2023/08/04 08:13:42;;;;;;;5.00;4.63;;;19.80;98.60;;;;;;4990670;28;20508;-75
2023/08/04 08:16:15;;;;;;;5.43;4.33;;;19.80;98.60;;;;;;4990728;28;20464;-74
2023/08/04 08:18:44;;;;;;;6.07;4.70;;;19.80;98.90;;;;;;4991304;28;20499;-75
2023/08/04 08:21:14;;;;;;;8.57;5.10;;;19.80;98.60;;;;;;4992240;28;20448;-74
2023/08/04 08:23:40;;;;;;;5.00;4.60;;;19.80;98.60;;;;;;4990840;28;20827;-74
2023/08/04 08:26:07;;;;;;;5.23;4.77;;;19.80;98.70;;;;;;4989288;28;20446;-75
2023/08/04 08:28:35;;;;;;;7.10;5.10;;;19.80;98.70;;;;;;4979722;28;21007;-74
2023/08/04 08:31:01;;;;;;;7.50;4.87;;;19.80;98.70;;;;;;5010862;28;20463;-75
2023/08/04 08:33:27;;;;;;;7.87;5.47;;;19.80;99.10;;;;;;4990114;28;20437;-74
2023/08/04 08:35:55;;;;;;;6.77;5.07;;;19.80;98.70;;;;;;5015302;28;20529;-73
2023/08/04 08:38:21;;;;;;;5.10;4.60;;;19.80;98.80;;;;;;5009049;28;20436;-73
2023/08/04 08:40:50;;;;;;;6.20;4.73;;;19.80;98.80;;;;;;4997746;28;20498;-74
2023/08/04 08:43:18;;;;;;;5.37;4.80;;;19.80;98.80;;;;;;4997109;28;20580;-73
2023/08/04 08:45:45;;;;;;;6.27;5.03;;;19.80;98.90;;;;;;4981787;28;20478;-72
2023/08/04 08:48:14;;;;;;;9.40;5.87;;;19.80;98.80;;;;;;5010612;28;20832;-73
2023/08/04 08:50:47;;;;;;;6.87;4.73;;;19.80;98.80;;;;;;4971028;28;20884;-73
2023/08/04 08:53:23;;;;;;;6.60;5.10;;;19.80;98.80;;;;;;4984997;28;20440;-74
2023/08/04 08:55:51;;;;;;;5.57;4.70;;;19.90;98.90;;;;;;5015259;28;20444;-74
2023/08/04 08:58:22;;;;;;;7.00;5.00;;;19.90;98.90;;;;;;4980290;28;20438;-74
2023/08/04 09:00:49;;;;;;;8.33;4.63;;;19.90;98.90;;;;;;4997625;28;20989;-74
2023/08/04 09:03:16;;;;;;;6.53;5.00;;;19.90;98.80;;;;;;4981411;28;20468;-74
2023/08/04 09:05:42;;;;;;;5.17;4.77;;;19.90;98.90;;;;;;4998162;28;20472;-74
2023/08/04 09:08:10;;;;;;;5.30;4.90;;;19.90;98.90;;;;;;4981813;28;20456;-74
2023/08/04 09:10:39;;;;;;;7.13;5.13;;;19.90;98.90;;;;;;5007747;28;20454;-74
2023/08/04 09:13:09;;;;;;;6.03;4.93;;;19.90;98.90;;;;;;4994718;28;20458;-73
2023/08/04 09:15:45;;;;;;;5.30;4.80;;;19.90;98.90;;;;;;4997129;28;20464;-74
2023/08/04 09:18:38;;;;;;;5.10;4.70;;;19.90;98.90;;;;;;4979799;28;20808;-75
2023/08/04 09:21:08;;;;;;;5.80;5.20;;;19.90;98.90;;;;;;4997118;28;20519;-74
2023/08/04 09:23:41;;;;;;;5.00;4.60;;;19.90;99.00;;;;;;4978653;28;20459;-75
2023/08/04 09:26:07;;;;;;;6.17;5.13;;;19.90;99.00;;;;;;4991700;28;20450;-75
2023/08/04 09:28:33;;;;;;;6.00;5.40;;;19.90;99.00;;;;;;4992592;28;21147;-75
2023/08/04 09:31:03;;;;;;;8.53;5.40;;;19.90;99.00;;;;;;4990172;28;20452;-74
2023/08/04 09:33:31;;;;;;;5.27;4.83;;;19.90;99.10;;;;;;4992868;28;20501;-74
2023/08/04 09:36:02;;;;;;;6.10;5.33;;;19.90;99.00;;;;;;4990347;28;20441;-75
2023/08/04 09:38:28;;;;;;;5.73;5.27;;;20.00;99.10;;;;;;5003120;28;20449;-75
2023/08/04 09:41:12;;;;;;;6.40;4.77;;;20.00;99.10;;;;;;4995948;28;20445;-77
2023/08/04 09:43:57;;;;;;;6.50;5.23;;;20.00;99.10;;;;;;4994319;28;20490;-76
2023/08/04 09:46:22;;;;;;;8.50;5.53;;;20.00;99.00;;;;;;5001646;28;20425;-76
2023/08/04 09:48:49;;;;;;;7.23;5.83;;;20.00;99.10;;;;;;5007701;28;20445;-76
2023/08/04 09:51:21;;;;;;;5.23;4.77;;;20.00;99.00;;;;;;5004633;28;20964;-74
2023/08/04 09:53:51;;;;;;;7.13;6.23;;;20.00;99.00;;;;;;4972926;28;20454;-74
2023/08/04 09:56:18;;;;;;;9.23;5.80;;;20.00;98.90;;;;;;4992402;28;20465;-75
2023/08/04 09:58:47;;;;;;;5.73;5.23;;;20.10;99.00;;;;;;4976476;28;20468;-75
2023/08/04 10:01:15;;;;;;;5.83;4.83;;;20.00;99.00;;;;;;5005419;28;20452;-75
2023/08/04 10:03:49;;;;;;;6.40;5.70;;;20.10;99.00;;;;;;4984499;28;20502;-74
2023/08/04 10:06:19;;;;;;;5.90;5.30;;;20.10;99.00;;;;;;4991378;28;20445;-75
2023/08/04 10:08:49;;;;;;;6.47;5.90;;;20.10;99.00;;;;;;4991198;28;20574;-74
2023/08/04 10:11:15;;;;;;;6.07;5.47;;;20.10;98.90;;;;;;5009810;28;20461;-74
2023/08/04 10:13:47;;;;;;;6.17;5.03;;;20.10;98.90;;;;;;5006134;28;20537;-75
2023/08/04 10:16:16;;;;;;;6.17;5.57;;;20.10;99.30;;;;;;4989779;28;20477;-74
2023/08/04 10:18:48;;;;;;;5.80;5.30;;;20.10;99.00;;;;;;4990017;28;21231;-75
2023/08/04 10:21:28;;;;;;;7.23;5.97;;;20.20;99.00;;;;;;4985457;28;20553;-75
2023/08/04 10:24:02;;;;;;;6.43;5.83;;;20.20;98.90;;;;;;4992010;28;20477;-75
2023/08/04 10:26:45;;;;;;;6.97;5.23;;;20.20;98.90;;;;;;5005843;28;20835;-75
2023/08/04 10:29:12;;;;;;;5.90;5.40;;;20.20;98.90;;;;;;5007335;28;20452;-74
2023/08/04 10:31:41;;;;;;;6.50;5.10;;;20.20;98.80;;;;;;4982855;28;20941;-75
2023/08/04 10:34:22;;;;;;;6.10;5.00;;;20.20;98.70;;;;;;4989151;28;20497;-74
2023/08/04 10:36:55;;;;;;;5.93;5.37;;;20.20;98.70;;;;;;4987712;28;20494;-74
2023/08/04 10:39:36;;;;;;;5.33;4.87;;;20.30;98.70;;;;;;4993042;28;20580;-75
2023/08/04 10:42:12;;;;;;;6.80;5.07;;;20.30;98.70;;;;;;4983273;28;20522;-74
2023/08/04 10:44:49;;;;;;;5.80;4.80;;;20.30;98.70;;;;;;4961829;28;20484;-74
2023/08/04 10:47:30;;;;;;;6.13;5.53;;;20.30;98.80;;;;;;4957588;28;20866;-73
2023/08/04 10:49:57;;;;;;;5.33;4.83;;;20.30;98.80;;;;;;4999099;28;20451;-73
2023/08/04 10:52:25;;;;;;;6.03;5.37;;;20.30;98.80;;;;;;5007989;28;20517;-75
2023/08/04 10:54:52;;;;;;;10.73;5.80;;;20.40;98.80;;;;;;4990397;28;20480;-76
2023/08/04 10:57:22;;;;;;;7.30;4.60;;;20.40;98.80;;;;;;4976092;28;20767;-73
2023/08/04 10:59:51;;;;;;;6.20;5.60;;;20.40;98.60;;;;;;4975347;28;20918;-73
2023/08/04 11:02:18;;;;;;;5.50;5.00;;;20.40;98.60;;;;;;5002708;28;20457;-73
2023/08/04 11:04:45;;;;;;;5.47;5.00;;;20.40;98.60;;;;;;4999689;28;20478;-73
2023/08/04 11:07:12;;;;;;;5.57;5.07;;;20.40;98.70;;;;;;4991130;28;20426;-73
2023/08/04 11:09:44;;;;;;;5.53;5.13;;;20.50;98.70;;;;;;4991088;28;20897;-73
2023/08/04 11:12:11;;;;;;;6.23;5.47;;;20.50;98.60;;;;;;4989827;28;20790;-73
2023/08/04 11:14:41;;;;;;;5.03;4.53;;;20.50;98.50;;;;;;4998638;28;20430;-73
2023/08/04 11:17:15;;;;;;;5.90;5.40;;;20.50;98.50;;;;;;4971009;28;20913;-74
2023/08/04 11:19:46;;;;;;;6.80;5.73;;;20.50;98.40;;;;;;5084168;23;20530;-72
2023/08/04 11:22:15;;;;;;;5.37;4.70;;;20.50;98.30;;;;;;5010959;28;20412;-74
2023/08/04 11:24:46;;;;;;;5.90;5.30;;;20.60;98.30;;;;;;5010664;28;20817;-74
2023/08/04 11:27:18;;;;;;;6.00;5.40;;;20.60;98.30;;;;;;4991873;28;20517;-74
2023/08/04 11:29:55;;;;;;;7.73;5.90;;;20.60;98.20;;;;;;4976977;28;20463;-75
2023/08/04 11:32:25;;;;;;;5.33;4.67;;;20.60;98.10;;;;;;4992732;28;20463;-74
2023/08/04 11:34:57;;;;;;;6.73;6.03;;;20.60;98.10;;;;;;5009994;28;20417;-75
2023/08/04 11:37:25;;;;;;;6.47;5.87;;;20.70;98.00;;;;;;5009194;28;20412;-75
2023/08/04 11:39:51;;;;;;;5.70;5.23;;;20.70;97.80;;;;;;4992309;28;20477;-75
2023/08/04 11:42:19;;;;;;;5.97;5.40;;;20.70;97.80;;;;;;4992320;28;20435;-75
2023/08/04 11:44:45;;;;;;;7.63;5.43;;;20.70;97.70;;;;;;5010071;28;20321;-74
2023/08/04 11:47:13;;;;;;;5.90;5.20;;;20.70;97.80;;;;;;4976094;28;20536;-75
2023/08/04 11:49:41;;;;;;;5.67;5.17;;;20.80;97.80;;;;;;4992584;28;20457;-75
2023/08/04 11:52:11;;;;;;;6.47;5.90;;;20.80;97.80;;;;;;4992722;28;20417;-75
2023/08/04 11:54:59;;;;;;;5.37;4.93;;;20.80;97.80;;;;;;5010008;28;20441;-75
2023/08/04 11:57:26;;;;;;;6.30;5.70;;;20.80;97.90;;;;;;5009634;28;20437;-75
2023/08/04 11:59:55;;;;;;;10.37;6.43;;;20.80;97.90;;;;;;4992243;28;20789;-75
2023/08/04 12:02:26;;;;;;;6.60;5.97;;;20.80;98.00;;;;;;4976106;28;20579;-74
2023/08/04 12:05:10;;;;;;;5.80;5.23;;;20.80;97.90;;;;;;4991624;28;20505;-75
2023/08/04 12:07:39;;;;;;;5.70;5.30;;;20.90;98.00;;;;;;4992119;28;20529;-75
2023/08/04 12:10:14;;;;;;;6.00;5.40;;;20.90;98.00;;;;;;5009391;28;21213;-75
2023/08/04 12:12:43;;;;;;;6.17;5.67;;;20.90;98.00;;;;;;4975743;28;20434;-74
2023/08/04 12:15:10;;;;;;;5.23;4.83;;;20.90;98.00;;;;;;4976482;28;20443;-75
2023/08/04 12:17:40;;;;;;;5.57;5.03;;;21.00;98.00;;;;;;4993070;28;20513;-75
2023/08/04 12:20:13;;;;;;;5.80;5.30;;;21.00;98.00;;;;;;4992442;28;20833;-74
2023/08/04 12:22:43;;;;;;;6.47;5.87;;;21.00;97.90;;;;;;5010740;28;20420;-75
2023/08/04 12:25:12;;;;;;;5.67;5.20;;;21.10;97.80;;;;;;5008030;28;20535;-75
2023/08/04 12:27:41;;;;;;;5.97;4.90;;;21.10;97.70;;;;;;4975426;28;20479;-75
2023/08/04 12:30:07;;;;;;;5.30;4.80;;;21.10;97.70;;;;;;5009563;28;20485;-75
2023/08/04 12:32:33;;;;;;;5.57;5.17;;;21.20;97.60;;;;;;4991623;28;20406;-75
2023/08/04 12:35:02;;;;;;;7.00;6.20;;;21.20;97.40;;;;;;4991377;28;20464;-75
2023/08/04 12:37:30;;;;;;;6.47;4.73;;;21.20;97.30;;;;;;5009456;28;20401;-75
2023/08/04 12:39:57;;;;;;;5.37;4.97;;;21.20;97.30;;;;;;4989454;28;20811;-76
2023/08/04 12:42:23;;;;;;;4.67;4.37;;;21.20;97.20;;;;;;4991333;28;20823;-73
2023/08/04 12:44:49;;;;;;;5.03;4.63;;;21.30;97.20;;;;;;4991181;28;20470;-74
2023/08/04 12:47:16;;;;;;;4.77;4.37;;;21.30;97.00;;;;;;5009410;28;20436;-75
2023/08/04 12:49:42;;;;;;;5.73;5.23;;;21.30;97.00;;;;;;4991024;28;20479;-73
2023/08/04 12:52:15;;;;;;;5.37;4.97;;;21.40;97.00;;;;;;5008698;28;20451;-75
2023/08/04 12:54:43;;;;;;;5.90;4.60;;;21.40;97.00;;;;;;4991198;28;20432;-75